createdAt,value
2023-01-03T00:00:13.836Z,2.23
2023-01-03T00:02:42.303Z,2.47
2023-01-03T00:05:11.149Z,2.10
2023-01-03T00:07:39.411Z,3.00
2023-01-03T00:10:10.145Z,2.83
2023-01-03T00:12:39.738Z,2.73
2023-01-03T00:15:10.968Z,3.00
2023-01-03T00:17:39.121Z,2.53
2023-01-03T00:20:09.585Z,2.97
2023-01-03T00:22:39.365Z,2.90
2023-01-03T00:25:08.112Z,2.87
2023-01-03T00:27:36.359Z,3.43
2023-01-03T00:30:05.828Z,2.27
2023-01-03T00:32:35.600Z,2.80
2023-01-03T00:35:05.564Z,2.70
2023-01-03T00:37:35.055Z,2.47
2023-01-03T00:40:04.220Z,2.67
2023-01-03T00:42:52.424Z,2.60
2023-01-03T00:45:23.352Z,2.63
2023-01-03T00:47:54.928Z,2.33
2023-01-03T00:50:23.357Z,2.40
2023-01-03T00:52:51.532Z,2.60
2023-01-03T00:55:19.826Z,2.40
2023-01-03T00:57:48.102Z,2.50
2023-01-03T01:00:16.792Z,2.20
2023-01-03T01:02:45.240Z,2.20
2023-01-03T01:05:14.909Z,2.03
2023-01-03T01:07:43.162Z,2.07
2023-01-03T01:10:11.452Z,2.33
2023-01-03T01:12:39.727Z,2.00
2023-01-03T01:15:09.113Z,2.23
2023-01-03T01:17:37.334Z,2.37
2023-01-03T01:20:06.841Z,2.23
2023-01-03T01:22:36.731Z,2.20
2023-01-03T01:25:05.573Z,2.10
2023-01-03T01:27:33.860Z,2.50
2023-01-03T01:30:02.003Z,1.70
2023-01-03T01:32:31.435Z,2.43
2023-01-03T01:34:59.600Z,2.00
2023-01-03T01:37:27.830Z,1.90
2023-01-03T01:39:57.425Z,2.90
2023-01-03T01:42:43.158Z,2.23
2023-01-03T01:45:15.355Z,2.10
2023-01-03T01:47:50.531Z,1.90
2023-01-03T01:50:23.579Z,1.83
2023-01-03T01:52:56.815Z,2.20
2023-01-03T01:55:32.036Z,2.23
2023-01-03T01:58:01.738Z,2.60
2023-01-03T02:00:31.261Z,2.10
2023-01-03T02:03:00.093Z,2.27
2023-01-03T02:05:29.475Z,2.40
2023-01-03T02:07:59.137Z,2.60
2023-01-03T02:10:40.783Z,2.17
2023-01-03T02:13:17.317Z,2.60
2023-01-03T02:16:03.287Z,1.80
2023-01-03T02:18:47.245Z,1.90
2023-01-03T02:21:47.479Z,2.00
2023-01-03T02:24:41.867Z,1.77
2023-01-03T02:27:29.400Z,1.87
2023-01-03T02:30:30.730Z,2.00
2023-01-03T02:33:08.915Z,1.90
2023-01-03T02:35:42.425Z,1.90
2023-01-03T02:38:19.350Z,2.00
2023-01-03T02:40:53.521Z,1.97
2023-01-03T02:43:29.362Z,2.20
2023-01-03T02:46:05.977Z,1.97
2023-01-03T02:48:42.918Z,1.90
2023-01-03T02:51:16.286Z,2.20
2023-01-03T02:53:48.498Z,2.20
2023-01-03T02:56:22.270Z,3.13
2023-01-03T02:58:57.734Z,2.30
2023-01-03T03:01:29.449Z,3.20
2023-01-03T03:03:59.212Z,1.87
2023-01-03T03:06:34.126Z,1.97
2023-01-03T03:09:02.434Z,1.60
2023-01-03T03:11:51.989Z,1.57
2023-01-03T03:14:24.238Z,1.80
2023-01-03T03:16:56.595Z,1.90
2023-01-03T03:19:46.006Z,2.40
2023-01-03T03:22:42.793Z,2.03
2023-01-03T03:25:16.735Z,1.93
2023-01-03T03:28:06.004Z,1.63
2023-01-03T03:30:38.018Z,2.43
2023-01-03T03:33:10.148Z,1.87
2023-01-03T03:35:45.364Z,2.03
2023-01-03T03:38:17.327Z,2.10
2023-01-03T03:41:11.753Z,2.80
2023-01-03T03:44:03.693Z,1.80
2023-01-03T03:46:38.563Z,2.83
2023-01-03T03:49:30.656Z,2.07
2023-01-03T03:52:02.854Z,1.73
2023-01-03T03:54:34.362Z,2.60
2023-01-03T03:57:09.076Z,2.57
2023-01-03T03:59:39.704Z,2.40
2023-01-03T04:02:10.408Z,2.73
2023-01-03T04:04:43.971Z,2.23
2023-01-03T04:07:12.276Z,2.20
2023-01-03T04:09:40.695Z,2.50
2023-01-03T04:12:09.050Z,2.20
2023-01-03T04:14:37.311Z,2.50
2023-01-03T04:17:05.500Z,2.70
2023-01-03T04:19:33.679Z,2.67
2023-01-03T04:22:04.299Z,2.50
2023-01-03T04:24:32.506Z,2.10
2023-01-03T04:27:00.796Z,3.10
2023-01-03T04:29:30.780Z,2.20
2023-01-03T04:32:02.357Z,2.00
2023-01-03T04:34:30.600Z,2.30
2023-01-03T04:36:58.827Z,2.00
2023-01-03T04:39:28.460Z,3.00
2023-01-03T04:41:56.709Z,2.80
2023-01-03T04:44:23.992Z,3.53
2023-01-03T04:46:53.209Z,2.77
2023-01-03T04:49:21.703Z,2.70
2023-01-03T04:51:49.982Z,3.00
2023-01-03T04:54:18.408Z,2.63
2023-01-03T04:56:48.990Z,2.60
2023-01-03T04:59:17.087Z,2.57
2023-01-03T05:01:52.118Z,2.30
2023-01-03T05:04:21.006Z,2.73
2023-01-03T05:06:49.247Z,2.43
2023-01-03T05:09:17.580Z,2.37
2023-01-03T05:11:46.188Z,2.50
2023-01-03T05:14:15.960Z,2.00
2023-01-03T05:16:44.281Z,2.43
2023-01-03T05:19:12.720Z,2.77
2023-01-03T05:21:59.041Z,2.57
2023-01-03T05:24:44.520Z,2.37
2023-01-03T05:27:12.960Z,2.10
2023-01-03T05:29:44.057Z,2.20
2023-01-03T05:32:12.383Z,3.27
2023-01-03T05:34:40.668Z,3.13
2023-01-03T05:37:09.289Z,2.43
2023-01-03T05:39:37.757Z,2.20
2023-01-03T05:42:06.238Z,1.63
2023-01-03T05:44:36.619Z,2.20
2023-01-03T05:47:06.724Z,1.67
2023-01-03T05:49:35.653Z,1.90
2023-01-03T05:52:04.130Z,1.90
2023-01-03T05:54:32.394Z,2.50
2023-01-03T05:57:00.653Z,2.00
2023-01-03T05:59:28.951Z,2.87
2023-01-03T06:01:57.214Z,2.40
2023-01-03T06:04:27.019Z,2.40
2023-01-03T06:06:55.311Z,2.20
2023-01-03T06:09:23.629Z,2.00
2023-01-03T06:11:51.962Z,2.30
2023-01-03T06:14:20.643Z,2.50
2023-01-03T06:17:06.452Z,2.37
2023-01-03T06:19:36.434Z,2.00
2023-01-03T06:22:10.567Z,2.50
2023-01-03T06:24:39.380Z,1.97
2023-01-03T06:27:07.683Z,2.40
2023-01-03T06:29:35.960Z,2.30
2023-01-03T06:32:09.238Z,2.40
2023-01-03T06:34:41.429Z,2.70
2023-01-03T06:37:09.918Z,2.77
2023-01-03T06:39:38.237Z,2.20
2023-01-03T06:42:21.672Z,2.80
2023-01-03T06:45:10.294Z,2.30
2023-01-03T06:47:56.311Z,2.23
2023-01-03T06:50:43.479Z,3.27
2023-01-03T06:53:15.891Z,2.60
2023-01-03T06:55:50.007Z,3.00
2023-01-03T06:58:22.649Z,2.80
2023-01-03T07:00:51.109Z,2.60
2023-01-03T07:03:19.341Z,1.90
2023-01-03T07:05:49.326Z,2.43
2023-01-03T07:08:17.632Z,3.60
2023-01-03T07:10:46.049Z,2.60
2023-01-03T07:13:46.347Z,3.53
2023-01-03T07:16:18.611Z,2.70
2023-01-03T07:18:54.725Z,2.80
2023-01-03T07:21:26.318Z,3.47
2023-01-03T07:23:54.887Z,3.20
2023-01-03T07:26:25.033Z,2.90
2023-01-03T07:28:53.739Z,3.90
2023-01-03T07:31:22.099Z,3.13
2023-01-03T07:33:50.584Z,3.00
2023-01-03T07:36:18.844Z,3.23
2023-01-03T07:38:49.203Z,3.33
2023-01-03T07:41:18.214Z,3.27
2023-01-03T07:43:48.066Z,2.80
2023-01-03T07:46:18.001Z,3.40
2023-01-03T07:48:48.568Z,2.93
2023-01-03T07:51:18.674Z,2.70
2023-01-03T07:53:51.981Z,2.67
2023-01-03T07:56:22.009Z,2.87
2023-01-03T07:58:51.874Z,3.10
2023-01-03T08:01:23.476Z,2.53
2023-01-03T08:03:51.963Z,2.80
2023-01-03T08:06:22.040Z,3.60
2023-01-03T08:09:06.680Z,3.03
2023-01-03T08:11:52.305Z,3.20
2023-01-03T08:14:25.576Z,2.50
2023-01-03T08:16:54.617Z,3.17
2023-01-03T08:19:24.375Z,3.13
2023-01-03T08:21:53.040Z,2.97
2023-01-03T08:24:22.655Z,3.20
2023-01-03T08:26:51.287Z,2.40
2023-01-03T08:29:19.569Z,2.87
2023-01-03T08:31:52.852Z,2.90
2023-01-03T08:34:29.088Z,3.07
2023-01-03T08:37:03.209Z,3.30
2023-01-03T08:39:50.761Z,3.00
2023-01-03T08:42:23.326Z,2.73
2023-01-03T08:44:58.239Z,3.13
2023-01-03T08:47:26.624Z,2.57
2023-01-03T08:49:55.603Z,2.60
2023-01-03T08:52:23.860Z,2.90
2023-01-03T08:54:53.422Z,2.90
2023-01-03T08:57:21.824Z,2.60
2023-01-03T08:59:50.086Z,3.00
2023-01-03T09:02:18.467Z,2.90
2023-01-03T09:04:47.099Z,3.17
2023-01-03T09:07:15.396Z,2.60
2023-01-03T09:09:43.618Z,2.57
2023-01-03T09:12:14.204Z,2.50
2023-01-03T09:14:42.388Z,2.63
2023-01-03T09:17:10.619Z,2.50
2023-01-03T09:19:39.437Z,2.47
2023-01-03T09:22:07.693Z,2.70
2023-01-03T09:24:35.920Z,3.00
2023-01-03T09:27:04.270Z,2.47
2023-01-03T09:29:33.904Z,2.50
2023-01-03T09:32:03.520Z,2.40
2023-01-03T09:34:32.029Z,2.63
2023-01-03T09:37:00.379Z,2.37
2023-01-03T09:39:28.713Z,2.70
2023-01-03T09:42:16.815Z,2.60
2023-01-03T09:44:46.929Z,2.30
2023-01-03T09:47:21.051Z,3.07
2023-01-03T09:50:26.215Z,2.27
2023-01-03T09:53:02.147Z,2.70
2023-01-03T09:55:55.381Z,2.33
2023-01-03T09:58:41.608Z,2.40
2023-01-03T10:01:52.457Z,2.10
2023-01-03T10:05:05.449Z,2.20
2023-01-03T10:07:48.208Z,2.30
2023-01-03T10:10:23.375Z,2.53
2023-01-03T10:13:04.045Z,2.87
2023-01-03T10:15:44.583Z,3.20
2023-01-03T10:18:29.850Z,2.20
2023-01-03T10:21:05.295Z,1.97
2023-01-03T10:23:33.665Z,1.20
2023-01-03T10:26:01.952Z,1.27
2023-01-03T10:28:35.302Z,1.10
2023-01-03T10:31:16.383Z,0.97
2023-01-03T10:33:47.107Z,1.10
2023-01-03T10:36:17.159Z,0.80
2023-01-03T10:38:52.615Z,1.23
2023-01-03T10:41:30.249Z,1.10
2023-01-03T10:44:00.005Z,1.00
2023-01-03T10:46:29.851Z,0.70
2023-01-03T10:49:31.036Z,1.20
2023-01-03T10:52:03.826Z,1.43
2023-01-03T10:54:48.230Z,0.97
2023-01-03T10:57:37.628Z,0.80
2023-01-03T11:00:24.019Z,0.80
2023-01-03T11:02:53.002Z,0.77
2023-01-03T11:05:25.889Z,1.00
2023-01-03T11:07:56.817Z,0.87
2023-01-03T11:10:27.546Z,0.97
2023-01-03T11:12:56.067Z,1.10
2023-01-03T11:15:38.855Z,1.07
2023-01-03T11:18:18.291Z,0.80
2023-01-03T11:20:53.565Z,0.97
2023-01-03T11:23:31.107Z,0.93
2023-01-03T11:26:07.167Z,1.10
2023-01-03T11:29:14.609Z,0.90
2023-01-03T11:31:52.524Z,0.80
2023-01-03T11:35:21.494Z,0.97
2023-01-03T11:37:49.401Z,1.20
2023-01-03T11:40:28.389Z,0.90
2023-01-03T11:43:13.041Z,0.90
2023-01-03T11:45:56.368Z,1.20
2023-01-03T11:48:41.793Z,0.90
2023-01-03T11:51:16.401Z,0.80
2023-01-03T11:54:00.644Z,1.00
2023-01-03T11:56:30.905Z,0.90
2023-01-03T11:59:14.029Z,1.10
2023-01-03T12:01:59.688Z,1.17
2023-01-03T12:04:32.426Z,0.70
2023-01-03T12:07:46.323Z,0.97
2023-01-03T12:10:10.359Z,1.20
2023-01-03T12:13:03.153Z,0.90
2023-01-03T12:15:43.172Z,0.93
2023-01-03T12:18:19.827Z,0.90
2023-01-03T12:20:55.506Z,0.90
2023-01-03T12:23:32.493Z,0.83
2023-01-03T12:26:05.437Z,1.03
2023-01-03T12:28:37.751Z,0.97
2023-01-03T12:31:17.441Z,0.90
2023-01-03T12:33:53.883Z,0.87
2023-01-03T12:36:32.440Z,0.83
2023-01-03T12:39:08.876Z,1.10
2023-01-03T12:41:44.898Z,1.10
2023-01-03T12:44:19.001Z,1.10
2023-01-03T12:46:51.257Z,1.10
2023-01-03T12:49:26.090Z,0.83
2023-01-03T12:51:54.327Z,0.90
2023-01-03T12:54:34.851Z,1.30
2023-01-03T12:57:27.615Z,0.77
2023-01-03T13:00:21.855Z,0.80
2023-01-03T13:02:54.479Z,1.80
2023-01-03T13:05:31.974Z,0.80
2023-01-03T13:08:07.975Z,0.77
2023-01-03T13:10:39.033Z,0.80
2023-01-03T13:13:14.833Z,0.90
2023-01-03T13:15:43.174Z,0.80
2023-01-03T13:18:30.722Z,0.80
2023-01-03T13:20:59.096Z,0.60
2023-01-03T13:23:57.339Z,0.60
2023-01-03T13:26:26.443Z,0.67
2023-01-03T13:29:36.771Z,0.50
2023-01-03T13:32:16.456Z,0.60
2023-01-03T13:34:45.141Z,0.80
2023-01-03T13:37:19.395Z,0.60
2023-01-03T13:40:34.687Z,1.00
2023-01-03T13:43:18.345Z,0.67
2023-01-03T13:45:52.567Z,0.40
2023-01-03T13:48:29.217Z,0.70
2023-01-03T13:51:29.068Z,0.60
2023-01-03T13:54:01.194Z,0.80
2023-01-03T13:56:31.682Z,0.80
2023-01-03T13:59:11.503Z,0.60
2023-01-03T14:01:51.576Z,0.90
2023-01-03T14:04:40.851Z,0.90
2023-01-03T14:07:52.003Z,0.60
2023-01-03T14:10:47.661Z,0.80
2023-01-03T14:13:37.429Z,0.67
2023-01-03T14:16:22.230Z,0.60
2023-01-03T14:19:01.185Z,0.60
2023-01-03T14:21:42.383Z,0.70
2023-01-03T14:24:20.681Z,0.80
2023-01-03T14:26:49.506Z,0.60
2023-01-03T14:29:21.432Z,0.87
2023-01-03T14:31:53.448Z,0.90
2023-01-03T14:34:34.703Z,0.87
2023-01-03T14:37:07.572Z,0.80
2023-01-03T14:42:05.002Z,0.60
2023-01-03T14:44:37.443Z,1.10
2023-01-03T14:47:08.502Z,0.63
2023-01-03T14:49:41.783Z,0.60
2023-01-03T14:52:18.951Z,0.50
2023-01-03T14:54:50.651Z,0.70
2023-01-03T14:57:21.185Z,0.70
2023-01-03T14:59:50.579Z,0.83
2023-01-03T15:02:19.883Z,0.87
2023-01-03T15:04:53.671Z,0.80
2023-01-03T15:07:30.930Z,0.80
2023-01-03T15:10:18.467Z,0.70
2023-01-03T15:12:49.572Z,0.90
2023-01-03T15:15:23.853Z,1.00
2023-01-03T15:17:54.969Z,1.00
2023-01-03T15:20:36.149Z,1.00
2023-01-03T15:23:06.430Z,0.80
2023-01-03T15:25:38.622Z,1.03
2023-01-03T15:28:14.959Z,0.67
2023-01-03T15:30:49.319Z,0.90
2023-01-03T15:33:24.765Z,0.90
2023-01-03T15:35:55.647Z,0.80
2023-01-03T15:38:33.976Z,1.10
2023-01-03T15:41:05.081Z,1.20
2023-01-03T15:43:36.973Z,0.90
2023-01-03T15:46:07.004Z,0.90
2023-01-03T15:48:36.648Z,0.83
2023-01-03T15:51:06.203Z,0.90
2023-01-03T15:53:43.283Z,0.90
2023-01-03T15:56:19.551Z,0.87
2023-01-03T15:58:49.364Z,1.07
2023-01-03T16:01:18.431Z,0.73
2023-01-03T16:03:48.602Z,1.53
2023-01-03T16:06:17.027Z,1.00
2023-01-03T16:08:47.136Z,1.27
2023-01-03T16:11:20.344Z,1.40
2023-01-03T16:13:53.055Z,1.07
2023-01-03T16:16:25.287Z,1.30
2023-01-03T16:18:54.746Z,1.27
2023-01-03T16:21:23.830Z,1.30
2023-01-03T16:23:53.797Z,1.43
2023-01-03T16:26:22.014Z,1.10
2023-01-03T16:28:50.320Z,1.00
2023-01-03T16:31:21.646Z,1.23
2023-01-03T16:33:51.673Z,1.50
2023-01-03T16:36:36.569Z,1.50
2023-01-03T16:39:14.192Z,1.50
2023-01-03T16:41:42.465Z,1.37
2023-01-03T16:44:10.685Z,2.00
2023-01-03T16:46:39.941Z,1.37
2023-01-03T16:49:08.580Z,2.47
2023-01-03T16:51:39.525Z,1.53
2023-01-03T16:54:15.318Z,1.53
2023-01-03T16:56:43.586Z,1.70
2023-01-03T16:59:15.676Z,1.90
2023-01-03T17:01:44.017Z,1.20
2023-01-03T17:04:12.433Z,1.40
2023-01-03T17:06:41.973Z,1.33
2023-01-03T17:09:17.786Z,1.33
2023-01-03T17:11:53.275Z,1.90
2023-01-03T17:14:22.948Z,1.53
2023-01-03T17:16:51.669Z,1.40
2023-01-03T17:20:02.891Z,1.90
2023-01-03T17:22:14.922Z,1.33
2023-01-03T17:24:45.276Z,1.83
2023-01-03T17:27:18.348Z,1.80
2023-01-03T17:29:48.044Z,2.00
2023-01-03T17:32:20.007Z,1.70
2023-01-03T17:34:48.661Z,1.23
2023-01-03T17:37:19.312Z,1.87
2023-01-03T17:39:54.138Z,2.00
2023-01-03T17:42:23.975Z,2.03
2023-01-03T17:45:10.301Z,1.67
2023-01-03T17:47:58.391Z,1.90
2023-01-03T17:50:27.440Z,1.80
2023-01-03T17:52:56.707Z,1.70
2023-01-03T17:55:29.297Z,2.00
2023-01-03T17:58:00.591Z,2.10
2023-01-03T18:00:29.698Z,2.40
2023-01-03T18:03:00.258Z,1.73
2023-01-03T18:05:29.810Z,2.03
2023-01-03T18:07:59.654Z,1.60
2023-01-03T18:10:33.828Z,1.73
2023-01-03T18:13:02.142Z,1.50
2023-01-03T18:15:33.993Z,1.80
2023-01-03T18:18:04.408Z,1.97
2023-01-03T18:20:32.614Z,1.67
2023-01-03T18:23:01.086Z,1.47
2023-01-03T18:25:31.395Z,1.40
2023-01-03T18:28:03.200Z,1.37
2023-01-03T18:30:31.890Z,1.37
2023-01-03T18:33:00.123Z,1.60
2023-01-03T18:35:37.520Z,1.60
2023-01-03T18:38:06.671Z,1.30
2023-01-03T18:40:38.072Z,1.20
2023-01-03T18:43:12.975Z,1.50
2023-01-03T18:45:42.900Z,1.13
2023-01-03T18:48:15.317Z,1.73
2023-01-03T18:50:44.270Z,1.30
2023-01-03T18:53:18.059Z,2.07
2023-01-03T18:55:48.589Z,2.10
2023-01-03T18:58:24.634Z,1.77
2023-01-03T19:00:52.850Z,2.00
2023-01-03T19:03:23.904Z,1.57
2023-01-03T19:05:55.269Z,1.77
2023-01-03T19:08:28.814Z,2.20
2023-01-03T19:11:01.936Z,1.93
2023-01-03T19:13:49.928Z,1.63
2023-01-03T19:16:21.293Z,1.73
2023-01-03T19:18:49.908Z,1.97
2023-01-03T19:21:19.369Z,1.63
2023-01-03T19:23:53.837Z,1.57
2023-01-03T19:26:29.591Z,1.17
2023-01-03T19:29:00.185Z,1.30
2023-01-03T19:31:30.327Z,1.50
2023-01-03T19:33:58.544Z,1.20
2023-01-03T19:36:26.828Z,1.80
2023-01-03T19:38:54.986Z,1.00
2023-01-03T19:41:23.225Z,1.40
2023-01-03T19:43:53.078Z,1.60
2023-01-03T19:46:21.289Z,1.53
2023-01-03T19:48:49.615Z,1.87
2023-01-03T19:51:17.850Z,1.60
2023-01-03T19:53:46.115Z,1.53
2023-01-03T19:56:22.364Z,0.97
2023-01-03T19:58:55.387Z,1.60
2023-01-03T20:01:26.163Z,0.90
2023-01-03T20:03:54.771Z,1.33
2023-01-03T20:06:23.071Z,0.90
2023-01-03T20:08:51.858Z,1.27
2023-01-03T20:11:22.703Z,1.20
2023-01-03T20:13:52.915Z,1.73
2023-01-03T20:16:23.549Z,1.30
2023-01-03T20:18:51.781Z,1.30
2023-01-03T20:21:23.246Z,1.33
2023-01-03T20:23:54.961Z,1.50
2023-01-03T20:26:27.083Z,1.20
2023-01-03T20:28:58.246Z,2.50
2023-01-03T20:31:27.296Z,1.57
2023-01-03T20:33:55.603Z,1.40
2023-01-03T20:36:26.348Z,1.10
2023-01-03T20:38:56.512Z,1.20
2023-01-03T20:41:35.730Z,1.73
2023-01-03T20:44:07.284Z,1.47
2023-01-03T20:46:36.235Z,1.20
2023-01-03T20:49:05.099Z,1.50
2023-01-03T20:51:35.017Z,1.37
2023-01-03T20:54:03.300Z,1.03
2023-01-03T20:56:33.185Z,1.50
2023-01-03T20:59:01.463Z,1.43
2023-01-03T21:01:31.412Z,1.23
2023-01-03T21:03:59.703Z,2.00
2023-01-03T21:06:29.460Z,1.60
2023-01-03T21:08:57.998Z,1.87
2023-01-03T21:11:28.666Z,1.27
2023-01-03T21:13:58.286Z,1.33
2023-01-03T21:16:33.745Z,1.37
2023-01-03T21:19:07.076Z,1.70
2023-01-03T21:21:36.008Z,1.40
2023-01-03T21:24:05.143Z,2.30
2023-01-03T21:26:33.460Z,1.63
2023-01-03T21:29:01.733Z,1.60
2023-01-03T21:31:31.386Z,1.20
2023-01-03T21:33:59.888Z,1.30
2023-01-03T21:36:29.607Z,1.30
2023-01-03T21:38:59.590Z,1.70
2023-01-03T21:41:30.460Z,1.80
2023-01-03T21:44:00.570Z,1.47
2023-01-03T21:46:29.370Z,1.23
2023-01-03T21:48:58.985Z,1.40
2023-01-03T21:51:37.837Z,1.63
2023-01-03T21:54:07.676Z,1.30
2023-01-03T21:56:44.431Z,1.43
2023-01-03T21:59:13.284Z,2.27
2023-01-03T22:01:55.703Z,1.53
2023-01-03T22:04:25.332Z,2.17
2023-01-03T22:07:00.247Z,1.47
2023-01-03T22:09:46.422Z,1.57
2023-01-03T22:12:15.947Z,1.30
2023-01-03T22:14:45.186Z,1.30
2023-01-03T22:17:13.535Z,1.60
2023-01-03T22:19:43.172Z,1.83
2023-01-03T22:22:11.522Z,1.40
2023-01-03T22:24:39.650Z,1.23
2023-01-03T22:27:08.228Z,1.77
2023-01-03T22:29:36.619Z,1.37
2023-01-03T22:32:05.501Z,1.43
2023-01-03T22:34:33.862Z,1.70
2023-01-03T22:37:03.630Z,1.47
2023-01-03T22:39:31.858Z,1.77
2023-01-03T22:42:01.254Z,1.83
2023-01-03T22:44:29.517Z,2.27
2023-01-03T22:46:57.745Z,1.53
2023-01-03T22:49:26.332Z,1.53
2023-01-03T22:51:54.605Z,1.80
2023-01-03T22:54:24.440Z,1.70
2023-01-03T22:56:52.631Z,1.80
2023-01-03T22:59:21.182Z,2.30
2023-01-03T23:01:50.147Z,1.80
2023-01-03T23:04:19.694Z,1.63
2023-01-03T23:06:47.933Z,1.47
2023-01-03T23:09:16.722Z,1.57
2023-01-03T23:12:04.058Z,1.40
2023-01-03T23:14:33.256Z,1.77
2023-01-03T23:17:23.921Z,1.63
2023-01-03T23:19:52.083Z,1.40
2023-01-03T23:22:20.362Z,1.10
2023-01-03T23:24:48.596Z,1.30
2023-01-03T23:27:19.150Z,1.00
2023-01-03T23:29:47.400Z,1.37
2023-01-03T23:32:15.582Z,1.13
2023-01-03T23:34:43.763Z,1.40
2023-01-03T23:37:12.110Z,1.10
2023-01-03T23:39:40.290Z,1.10
2023-01-03T23:42:08.695Z,1.23
2023-01-03T23:44:38.310Z,1.70
2023-01-03T23:47:11.732Z,1.40
2023-01-03T23:49:41.134Z,1.30
2023-01-03T23:52:09.679Z,1.00
2023-01-03T23:54:37.936Z,0.87
2023-01-03T23:57:06.209Z,0.80
2023-01-03T23:59:34.526Z,2.97
